Time;durP1;ratioP1;P1;durP2;ratioP2;P2;SDS_P1;SDS_P2;PMS_P1;PMS_P2;Temp;Humidity;BMP_temperature;BMP_pressure;BME280_temperature;BME280_humidity;BME280_pressure;Samples;Min_cycle;Max_cycle;Signal;HPM_P1;HPM_P2
2023/06/16 00:02:43;;;;;;;3.30;2.50;;;;;;;20.43;51.11;96696.13;10351016;28;20065;-30
2023/06/16 00:07:44;;;;;;;2.90;2.63;;;;;;;20.42;50.90;96707.16;10351573;28;20135;-30
2023/06/16 00:12:44;;;;;;;4.40;2.47;;;;;;;20.40;50.80;96701.22;10349909;28;20789;-30
2023/06/16 00:17:46;;;;;;;2.37;2.17;;;;;;;20.39;50.75;96698.72;10343727;28;20034;-29
2023/06/16 00:22:50;;;;;;;2.58;2.30;;;;;;;20.42;50.75;96695.31;10334607;28;20121;-30
2023/06/16 00:27:51;;;;;;;3.03;2.80;;;;;;;20.49;47.03;96680.84;10353710;28;20087;-30
2023/06/16 00:32:51;;;;;;;3.23;2.93;;;;;;;20.64;46.93;96702.75;10353069;28;20038;-31
2023/06/16 00:37:53;;;;;;;3.30;2.90;;;;;;;20.58;47.68;96696.00;10332317;28;20033;-30
2023/06/16 00:42:57;;;;;;;3.00;2.80;;;;;;;20.51;49.74;96689.28;10356152;28;20022;-30
2023/06/16 00:47:59;;;;;;;4.85;2.70;;;;;;;20.45;49.80;96684.25;10342926;28;20034;-30
2023/06/16 00:53:00;;;;;;;2.80;2.50;;;;;;;20.43;49.98;96691.03;10337389;28;20475;-30
2023/06/16 00:58:00;;;;;;;3.45;2.72;;;;;;;20.40;50.31;96693.59;10333030;28;20129;-29
2023/06/16 01:03:02;;;;;;;2.63;2.40;;;;;;;20.40;50.32;96701.22;10347776;28;20030;-29
2023/06/16 01:08:28;;;;;;;3.10;2.80;;;;;;;20.39;50.26;96699.53;10352291;28;20042;-30
2023/06/16 01:13:55;;;;;;;2.95;2.30;;;;;;;20.37;50.52;96700.44;10345312;28;20109;-30
2023/06/16 01:19:02;;;;;;;3.30;2.50;;;;;;;20.47;47.05;96696.94;10340211;28;20121;-30
2023/06/16 01:24:13;;;;;;;2.92;2.63;;;;;;;20.59;45.88;96696.84;10349602;28;20499;-30
2023/06/16 01:29:15;;;;;;;4.50;3.05;;;;;;;20.55;46.78;96701.09;10343234;28;20041;-31
2023/06/16 01:34:16;;;;;;;2.78;2.58;;;;;;;20.45;49.03;96693.59;10322340;28;20133;-30
2023/06/16 01:39:17;;;;;;;2.47;2.28;;;;;;;20.42;48.75;96693.59;10315651;28;20126;-29
2023/06/16 01:44:18;;;;;;;3.03;2.50;;;;;;;20.38;49.04;96702.94;10339712;28;20034;-30
2023/06/16 01:49:19;;;;;;;2.70;2.20;;;;;;;20.36;49.41;96702.97;10330075;28;20035;-30
2023/06/16 01:54:19;;;;;;;2.95;2.40;;;;;;;20.35;49.78;96706.38;10338884;28;20034;-30
2023/06/16 01:59:20;;;;;;;2.63;2.43;;;;;;;20.34;50.18;96699.59;10345677;28;20033;-30
2023/06/16 02:04:25;;;;;;;2.63;2.42;;;;;;;20.31;50.46;96697.06;10338967;28;20292;-30
2023/06/16 02:09:26;;;;;;;2.25;2.05;;;;;;;20.14;51.23;96692.13;10353080;28;20034;-31
2023/06/16 02:14:27;;;;;;;2.25;2.05;;;;;;;20.27;50.54;96697.97;10321875;28;20502;-30
2023/06/16 02:19:28;;;;;;;2.63;2.30;;;;;;;20.21;51.07;96692.91;10337017;28;20399;-30
2023/06/16 02:24:28;;;;;;;1.65;1.55;;;;;;;20.13;51.04;96690.44;10336937;28;20041;-30
2023/06/16 02:29:29;;;;;;;1.90;1.80;;;;;;;20.06;51.33;96683.69;10343961;28;20505;-30
2023/06/16 02:34:30;;;;;;;2.47;2.25;;;;;;;20.07;51.12;96690.47;10341739;28;20042;-30
2023/06/16 02:39:30;;;;;;;2.33;2.13;;;;;;;20.08;50.93;96696.41;10341153;28;20038;-30
2023/06/16 02:44:31;;;;;;;2.20;1.98;;;;;;;20.04;51.00;96693.03;10338289;28;20044;-30
2023/06/16 02:49:32;;;;;;;3.88;2.35;;;;;;;20.02;50.79;96694.69;10334762;28;20096;-31
2023/06/16 02:54:33;;;;;;;2.33;2.13;;;;;;;20.02;50.75;96687.06;10338323;28;20030;-30
2023/06/16 02:59:35;;;;;;;2.80;2.40;;;;;;;20.01;50.68;96684.56;10327529;28;20026;-30
2023/06/16 03:04:36;;;;;;;2.15;1.95;;;;;;;20.07;50.46;96693.00;10329506;28;20034;-30
2023/06/16 03:09:46;;;;;;;2.67;2.47;;;;;;;20.17;50.11;96688.72;10329713;28;20039;-29
2023/06/16 03:14:47;;;;;;;2.63;2.40;;;;;;;20.09;50.08;96688.75;10326350;28;20089;-30
2023/06/16 03:19:50;;;;;;;2.65;2.45;;;;;;;20.04;50.72;96690.50;10338332;28;20026;-31
2023/06/16 03:25:02;;;;;;;2.03;1.90;;;;;;;20.02;50.27;96688.78;10328902;28;20042;-30
2023/06/16 03:30:08;;;;;;;3.22;2.92;;;;;;;20.00;50.28;96693.03;10332480;28;20046;-30
2023/06/16 03:35:30;;;;;;;3.13;2.40;;;;;;;20.00;50.46;96693.03;10336590;28;20049;-30
2023/06/16 03:40:33;;;;;;;3.00;2.63;;;;;;;19.98;50.29;96694.72;10339946;28;20030;-31
2023/06/16 03:45:36;;;;;;;3.05;2.60;;;;;;;19.98;50.30;96697.25;10341307;28;20030;-31
2023/06/16 03:50:36;;;;;;;4.75;2.90;;;;;;;19.39;49.20;96701.81;10325005;28;20473;-30
2023/06/16 03:55:37;;;;;;;4.53;2.95;;;;;;;18.85;48.31;96692.63;10336513;28;20091;-30
2023/06/16 04:00:37;;;;;;;3.95;3.45;;;;;;;18.58;48.14;96707.06;10352312;28;20124;-30
2023/06/16 04:05:38;;;;;;;3.67;3.28;;;;;;;18.58;48.29;96707.06;10333904;28;20154;-29
2023/06/16 04:10:40;;;;;;;5.75;3.40;;;;;;;18.43;48.55;96722.25;10338191;28;20057;-30
2023/06/16 04:15:41;;;;;;;3.20;2.90;;;;;;;18.35;48.24;96719.69;10339384;28;20118;-30
2023/06/16 04:20:42;;;;;;;4.22;3.80;;;;;;;18.42;48.66;96715.50;10324941;28;20409;-29
2023/06/16 04:25:42;;;;;;;3.70;3.38;;;;;;;18.34;48.47;96717.19;10328493;28;20052;-30
2023/06/16 04:30:44;;;;;;;3.42;3.13;;;;;;;18.50;48.56;96727.31;10327952;28;20030;-30
2023/06/16 04:35:44;;;;;;;3.90;3.50;;;;;;;18.54;48.79;96730.69;10323587;28;20030;-30
2023/06/16 04:40:45;;;;;;;4.60;3.00;;;;;;;18.49;48.21;96732.41;10327693;28;20026;-29
2023/06/16 04:45:48;;;;;;;5.65;3.95;;;;;;;18.38;49.03;96734.06;10338030;28;20030;-30
2023/06/16 04:50:48;;;;;;;4.38;3.63;;;;;;;18.33;49.09;96730.72;10340764;28;20390;-30
2023/06/16 04:55:49;;;;;;;4.72;3.22;;;;;;;18.39;49.61;96728.16;10337519;28;20042;-30
2023/06/16 05:00:50;;;;;;;6.22;2.65;;;;;;;19.09;48.88;96737.41;10346228;28;20054;-30
2023/06/16 05:05:50;;;;;;;5.15;3.45;;;;;;;19.38;48.17;96725.50;10346235;28;20034;-30
2023/06/16 05:10:51;;;;;;;3.43;3.13;;;;;;;19.48;48.14;96733.09;10338913;28;20031;-29
2023/06/16 05:15:53;;;;;;;3.60;3.17;;;;;;;19.54;48.11;96730.53;10322869;28;20117;-29
2023/06/16 05:20:54;;;;;;;3.72;3.10;;;;;;;19.59;48.42;96726.25;10336735;28;20072;-29
2023/06/16 05:25:55;;;;;;;4.05;3.17;;;;;;;19.65;48.41;96727.94;10338576;28;20379;-30
2023/06/16 05:30:55;;;;;;;3.30;2.97;;;;;;;19.69;48.33;96727.09;10362873;28;20037;-30
2023/06/16 05:35:55;;;;;;;7.30;3.25;;;;;;;19.73;48.46;96732.13;10342802;28;20030;-30
2023/06/16 05:40:56;;;;;;;3.10;2.80;;;;;;;19.72;48.55;96737.22;10343692;28;20505;-30
2023/06/16 05:45:57;;;;;;;4.63;3.05;;;;;;;19.75;48.89;96737.22;10325620;28;20033;-30
2023/06/16 05:50:59;;;;;;;3.42;3.08;;;;;;;19.93;47.73;96726.97;10346382;28;20410;-29
2023/06/16 05:55:59;;;;;;;5.88;3.22;;;;;;;19.98;47.93;96736.25;10334407;28;20042;-30
2023/06/16 06:01:02;;;;;;;3.42;3.13;;;;;;;19.91;48.69;96733.75;10331597;28;20027;-29
2023/06/16 06:06:03;;;;;;;3.15;2.85;;;;;;;19.88;48.83;96738.84;10352899;28;20520;-30
2023/06/16 06:11:06;;;;;;;3.20;2.90;;;;;;;19.90;49.01;96745.59;10346328;28;20437;-30
2023/06/16 06:16:06;;;;;;;5.05;3.13;;;;;;;19.92;48.67;96745.59;10335617;28;20026;-30
2023/06/16 06:21:07;;;;;;;3.40;3.10;;;;;;;19.88;48.85;96759.16;10359051;28;20026;-30
2023/06/16 06:26:07;;;;;;;3.05;2.75;;;;;;;19.82;49.09;96756.63;10332490;28;20093;-29
2023/06/16 06:31:08;;;;;;;2.72;2.53;;;;;;;19.82;49.22;96766.81;10352597;28;20644;-30
2023/06/16 06:36:09;;;;;;;4.30;3.13;;;;;;;19.81;49.44;96762.56;10333622;28;20117;-31
2023/06/16 06:41:10;;;;;;;3.15;2.85;;;;;;;19.85;49.51;96769.34;10339475;28;20037;-30
2023/06/16 06:46:11;;;;;;;4.38;3.25;;;;;;;20.08;48.59;96777.75;10344825;28;20038;-30
2023/06/16 06:51:16;;;;;;;3.03;2.73;;;;;;;20.12;48.54;96784.47;10334239;28;20042;-30
2023/06/16 06:56:17;;;;;;;4.20;3.63;;;;;;;20.01;49.16;96783.66;10338272;28;20046;-30
2023/06/16 07:01:17;;;;;;;2.83;2.63;;;;;;;19.97;49.36;96789.59;10345348;28;20120;-30
2023/06/16 07:06:18;;;;;;;13.63;3.37;;;;;;;19.97;50.05;96792.16;10329252;28;20286;-30
2023/06/16 07:11:18;;;;;;;27.00;4.53;;;;;;;20.04;49.78;96798.91;10342334;28;20303;-31
2023/06/16 07:16:19;;;;;;;6.17;3.23;;;;;;;20.06;49.58;96804.84;10336836;28;20076;-30
2023/06/16 07:21:21;;;;;;;10.55;2.80;;;;;;;20.04;49.75;96799.78;10335368;28;20038;-29
2023/06/16 07:26:22;;;;;;;5.60;3.47;;;;;;;20.14;47.67;96803.09;10336201;28;20065;-29
2023/06/16 07:31:22;;;;;;;6.90;2.67;;;;;;;20.10;49.58;96802.28;10334985;28;20053;-30
2023/06/16 07:36:22;;;;;;;9.70;3.87;;;;;;;20.06;49.94;96807.38;10336387;28;20796;-30
2023/06/16 07:41:23;;;;;;;7.57;3.73;;;;;;;20.27;48.35;96809.84;10350726;28;20304;-30
2023/06/16 07:46:23;;;;;;;6.57;3.50;;;;;;;20.30;49.32;96814.88;10334834;28;20038;-29
2023/06/16 07:51:25;;;;;;;4.10;3.03;;;;;;;20.22;49.69;96807.31;10342689;28;20394;-30
2023/06/16 07:56:25;;;;;;;3.38;2.90;;;;;;;20.23;49.60;96803.06;10357864;28;20029;-30
2023/06/16 08:01:26;;;;;;;5.73;3.77;;;;;;;20.21;49.85;96800.53;10343769;28;20149;-31
2023/06/16 08:06:27;;;;;;;7.65;2.90;;;;;;;20.23;49.91;96803.91;10326432;28;20281;-30
2023/06/16 08:11:27;;;;;;;10.13;3.33;;;;;;;20.28;50.11;96798.81;10348607;28;20046;-30
2023/06/16 08:16:27;;;;;;;5.00;3.50;;;;;;;20.28;50.09;96797.09;10342613;28;20291;-30
2023/06/16 08:21:28;;;;;;;5.70;3.37;;;;;;;20.29;50.38;96797.94;10335703;28;20281;-30
2023/06/16 08:26:28;;;;;;;5.93;4.37;;;;;;;20.26;50.23;96793.72;10341779;28;20092;-29
2023/06/16 08:31:29;;;;;;;5.05;3.88;;;;;;;20.31;50.10;96786.06;10334469;28;20042;-30
2023/06/16 08:36:29;;;;;;;3.93;3.47;;;;;;;20.45;49.60;96791.06;10342411;28;20065;-30
2023/06/16 08:41:30;;;;;;;10.07;6.07;;;;;;;20.42;49.76;96786.00;10361255;28;20038;-30
2023/06/16 08:46:31;;;;;;;13.63;6.13;;;;;;;20.38;49.78;96782.63;10349901;28;20042;-30
2023/06/16 08:51:33;;;;;;;27.90;6.80;;;;;;;20.37;51.17;96786.03;10349959;28;20201;-30
2023/06/16 08:56:36;;;;;;;15.82;5.72;;;;;;;20.33;50.79;96779.28;10343281;28;20034;-30
2023/06/16 09:01:39;;;;;;;16.27;5.65;;;;;;;20.30;50.77;96795.41;10344947;28;20030;-30
2023/06/16 09:06:45;;;;;;;8.88;5.47;;;;;;;20.28;50.70;96776.75;10342704;28;20117;-30
2023/06/16 09:12:02;;;;;;;14.13;5.30;;;;;;;20.30;50.81;96789.47;10355570;28;20038;-29
2023/06/16 09:17:08;;;;;;;11.15;5.72;;;;;;;20.28;50.79;96775.91;10359832;28;20076;-30
2023/06/16 09:22:12;;;;;;;10.60;5.90;;;;;;;20.27;50.64;96771.69;10348776;28;20037;-29
2023/06/16 09:27:13;;;;;;;13.45;4.70;;;;;;;20.42;50.46;96769.88;10353848;28;20048;-30
2023/06/16 09:32:13;;;;;;;6.37;4.63;;;;;;;20.53;49.95;96763.88;10353240;28;20536;-30
2023/06/16 09:37:19;;;;;;;9.03;5.70;;;;;;;20.43;50.48;96764.78;10356324;28;20533;-30
2023/06/16 09:42:19;;;;;;;9.70;5.87;;;;;;;20.38;50.30;96763.97;10329884;28;20044;-29
2023/06/16 09:47:21;;;;;;;9.98;5.65;;;;;;;20.35;50.39;96768.22;10347004;28;20042;-30
2023/06/16 09:52:25;;;;;;;13.07;7.30;;;;;;;20.30;50.74;96753.88;10355959;28;20036;-29
2023/06/16 09:57:27;;;;;;;11.43;7.03;;;;;;;20.30;50.69;96758.94;10353951;28;20121;-30
2023/06/16 10:02:28;;;;;;;10.90;6.60;;;;;;;20.29;50.69;96750.50;10347466;28;20517;-30
2023/06/16 10:07:30;;;;;;;8.40;5.70;;;;;;;20.30;50.89;96759.81;10331506;28;20446;-29
2023/06/16 10:12:33;;;;;;;10.50;6.10;;;;;;;20.28;50.82;96756.41;10338130;28;20040;-30
2023/06/16 10:17:37;;;;;;;6.25;4.45;;;;;;;20.31;50.95;96756.41;10330543;28;20117;-30
2023/06/16 10:22:38;;;;;;;6.53;4.30;;;;;;;20.49;50.00;96753.72;10360948;28;20475;-29
2023/06/16 10:27:40;;;;;;;8.65;4.95;;;;;;;20.56;50.25;96753.66;10330080;28;20034;-31
2023/06/16 10:32:40;;;;;;;7.80;4.40;;;;;;;20.45;50.06;96755.44;10344492;28;20113;-29
2023/06/16 10:37:41;;;;;;;7.70;5.33;;;;;;;20.38;50.67;96750.44;10338273;28;20502;-30
2023/06/16 10:42:41;;;;;;;8.98;5.25;;;;;;;20.34;50.86;96750.47;10360262;28;20091;-30
2023/06/16 10:47:55;;;;;;;7.07;4.80;;;;;;;20.32;50.87;96740.28;10336782;28;20049;-30
2023/06/16 10:52:56;;;;;;;5.38;4.15;;;;;;;20.32;50.68;96747.91;10337372;28;20289;-30
2023/06/16 10:58:19;;;;;;;5.82;4.22;;;;;;;20.31;50.98;96745.38;10336526;28;20038;-30
2023/06/16 11:03:20;;;;;;;8.32;4.65;;;;;;;20.29;51.00;96758.13;10333464;28;20054;-30
2023/06/16 11:08:21;;;;;;;5.40;4.25;;;;;;;20.24;51.35;96749.66;10349716;28;20120;-30
2023/06/16 11:13:25;;;;;;;22.80;4.10;;;;;;;20.44;49.86;96751.22;10340908;28;20393;-29
2023/06/16 11:18:27;;;;;;;19.52;4.65;;;;;;;20.58;49.08;96746.88;10343726;28;20548;-30
2023/06/16 11:23:28;;;;;;;9.98;4.47;;;;;;;20.52;49.82;96746.94;10351361;28;20030;-30
2023/06/16 11:28:28;;;;;;;6.07;4.50;;;;;;;20.40;50.66;96741.09;10345571;28;20034;-30
2023/06/16 11:33:31;;;;;;;6.85;4.15;;;;;;;20.35;50.71;96737.72;10358365;28;20179;-30
2023/06/16 11:38:31;;;;;;;6.82;4.10;;;;;;;20.35;50.31;96740.25;10343695;28;20034;-30
2023/06/16 11:43:35;;;;;;;6.10;3.50;;;;;;;20.32;50.27;96722.50;10328720;28;20490;-30
2023/06/16 11:48:37;;;;;;;11.00;4.10;;;;;;;20.37;51.37;96735.16;10362620;28;20029;-30
2023/06/16 11:53:38;;;;;;;12.07;3.88;;;;;;;20.34;51.79;96725.03;10358022;28;20038;-30
2023/06/16 11:58:38;;;;;;;11.47;4.43;;;;;;;20.33;51.78;96726.72;10367006;28;20053;-30
2023/06/16 12:03:39;;;;;;;6.82;3.80;;;;;;;20.31;51.63;96720.81;10351860;28;20405;-29
2023/06/16 12:08:45;;;;;;;6.20;3.95;;;;;;;20.53;48.59;96728.25;10324937;28;20054;-29
2023/06/16 12:13:45;;;;;;;6.82;4.50;;;;;;;20.59;48.28;96723.13;10335415;28;20527;-30
2023/06/16 12:18:50;;;;;;;9.30;4.22;;;;;;;20.50;50.24;96720.66;10356457;28;20034;-30
2023/06/16 12:23:56;;;;;;;11.43;3.80;;;;;;;20.43;51.00;96716.47;10343070;28;20037;-30
2023/06/16 12:29:00;;;;;;;7.70;3.83;;;;;;;20.38;51.21;96711.44;10335151;28;20042;-30
2023/06/16 12:34:01;;;;;;;4.78;3.80;;;;;;;20.37;51.21;96717.38;10332680;28;20058;-31
2023/06/16 12:39:14;;;;;;;5.17;3.30;;;;;;;20.35;51.30;96712.28;10342064;28;20137;-30
2023/06/16 12:44:17;;;;;;;7.93;3.70;;;;;;;20.34;51.31;96707.25;10334057;28;20112;-29
2023/06/16 12:49:19;;;;;;;6.07;3.40;;;;;;;20.33;51.51;96700.47;10334183;28;20085;-30
2023/06/16 12:54:19;;;;;;;4.45;3.20;;;;;;;20.34;51.47;96702.16;10335256;28;20034;-30
2023/06/16 12:59:19;;;;;;;7.68;3.63;;;;;;;20.46;49.60;96701.19;10330253;28;20026;-29
2023/06/16 13:04:20;;;;;;;8.10;4.87;;;;;;;20.59;48.80;96692.59;10336516;28;20030;-31
2023/06/16 13:09:21;;;;;;;6.70;3.95;;;;;;;20.58;49.57;96684.97;10361265;28;20043;-30
2023/06/16 13:14:22;;;;;;;5.95;3.47;;;;;;;20.45;51.06;96699.50;10341001;28;20045;-30
2023/06/16 13:19:22;;;;;;;5.07;3.30;;;;;;;20.39;51.13;96698.72;10346277;28;20549;-30
2023/06/16 13:24:23;;;;;;;3.93;3.17;;;;;;;20.38;51.29;96701.25;10348601;28;20057;-30
2023/06/16 13:29:23;;;;;;;6.57;3.67;;;;;;;20.35;50.91;96697.03;10350570;28;20045;-30
2023/06/16 13:34:24;;;;;;;5.65;4.50;;;;;;;20.34;51.34;96689.44;10348839;28;20479;-30
2023/06/16 13:39:24;;;;;;;4.88;3.65;;;;;;;20.33;51.36;96687.75;10345531;28;20029;-30
2023/06/16 13:44:25;;;;;;;6.13;4.47;;;;;;;20.33;51.41;96685.22;10364101;28;20417;-30
2023/06/16 13:49:28;;;;;;;8.57;5.20;;;;;;;20.35;51.37;96684.31;10349388;28;20034;-30
2023/06/16 13:54:28;;;;;;;6.60;3.85;;;;;;;20.53;50.13;96682.47;10345438;28;20259;-30
2023/06/16 13:59:28;;;;;;;5.50;4.20;;;;;;;20.63;49.90;96681.53;10338806;28;20483;-30
2023/06/16 14:04:29;;;;;;;5.37;4.33;;;;;;;20.53;50.32;96677.38;10336978;28;20601;-29
2023/06/16 14:09:29;;;;;;;5.18;3.13;;;;;;;20.44;51.33;96677.47;10335451;28;20573;-30
2023/06/16 14:14:30;;;;;;;8.35;3.90;;;;;;;20.39;51.36;96663.94;10348300;28;20038;-30
2023/06/16 14:19:31;;;;;;;4.32;3.25;;;;;;;20.36;51.61;96672.47;10333765;28;20030;-31
2023/06/16 14:24:33;;;;;;;5.60;3.83;;;;;;;20.36;51.79;96665.66;10352932;28;20096;-30
2023/06/16 14:29:33;;;;;;;3.65;2.92;;;;;;;20.35;51.80;96666.53;10336388;28;20049;-30
2023/06/16 14:34:34;;;;;;;4.07;3.30;;;;;;;20.35;51.91;96661.44;10327567;28;20453;-30
2023/06/16 14:39:34;;;;;;;5.03;3.60;;;;;;;20.35;51.82;96656.34;10331934;28;20502;-30
2023/06/16 14:44:36;;;;;;;4.60;3.63;;;;;;;20.42;51.90;96648.66;10329137;28;20030;-29
2023/06/16 14:49:37;;;;;;;5.55;3.63;;;;;;;20.61;51.86;96660.34;10343841;28;20045;-30
2023/06/16 14:54:38;;;;;;;5.03;3.45;;;;;;;20.64;51.08;96655.22;10351893;28;20405;-30
2023/06/16 14:59:38;;;;;;;5.77;3.33;;;;;;;20.56;51.60;96667.19;10338469;28;20399;-29
2023/06/16 15:04:39;;;;;;;4.23;3.30;;;;;;;20.44;51.69;96656.28;10335013;28;20292;-30
2023/06/16 15:09:40;;;;;;;4.68;3.22;;;;;;;20.41;51.89;96651.22;10329352;28;20376;-30
2023/06/16 15:14:40;;;;;;;6.60;3.20;;;;;;;20.39;52.11;96647.84;10336281;28;20060;-30
2023/06/16 15:19:41;;;;;;;4.50;3.30;;;;;;;20.38;52.19;96642.78;10352473;28;20124;-30
2023/06/16 15:24:42;;;;;;;4.45;3.40;;;;;;;20.37;52.05;96644.50;10333725;28;20537;-30
2023/06/16 15:29:44;;;;;;;6.17;3.63;;;;;;;20.40;52.21;96645.28;10327376;28;20087;-30
2023/06/16 15:34:44;;;;;;;4.18;2.85;;;;;;;20.38;52.36;96639.38;10349178;28;20386;-29
2023/06/16 15:39:45;;;;;;;5.03;2.95;;;;;;;20.51;52.53;96637.56;10339930;28;20226;-30
2023/06/16 15:44:45;;;;;;;7.33;3.50;;;;;;;20.67;52.29;96629.78;10366878;28;20045;-30
2023/06/16 15:49:48;;;;;;;4.67;3.13;;;;;;;20.65;51.63;96626.38;10367690;28;20513;-30
2023/06/16 15:54:48;;;;;;;8.02;3.78;;;;;;;20.52;52.04;96619.75;10342504;28;20549;-29
2023/06/16 15:59:48;;;;;;;3.88;3.45;;;;;;;20.46;52.28;96619.78;10365996;28;20045;-30
2023/06/16 16:04:49;;;;;;;7.13;2.83;;;;;;;20.42;52.31;96613.06;10351390;28;20037;-30
2023/06/16 16:09:49;;;;;;;4.00;2.90;;;;;;;20.40;52.48;96617.31;10343309;28;20382;-30
2023/06/16 16:14:50;;;;;;;3.97;3.13;;;;;;;20.40;52.44;96614.75;10368003;28;20491;-30
2023/06/16 16:19:50;;;;;;;4.27;3.20;;;;;;;20.39;52.40;96608.00;10356801;28;20027;-30
2023/06/16 16:24:51;;;;;;;5.00;2.97;;;;;;;20.38;52.46;96606.31;10357878;28;20396;-30
2023/06/16 16:29:54;;;;;;;4.55;3.47;;;;;;;20.38;52.44;96605.47;10353609;28;20044;-30
2023/06/16 16:34:54;;;;;;;4.55;3.08;;;;;;;20.59;52.39;96606.13;10358962;28;20042;-31
2023/06/16 16:39:54;;;;;;;4.15;2.55;;;;;;;20.70;52.10;96604.28;10358626;28;20565;-29
2023/06/16 16:44:55;;;;;;;3.10;2.80;;;;;;;20.61;51.89;96603.53;10369678;28;20460;-30
2023/06/16 16:49:55;;;;;;;4.00;2.90;;;;;;;20.48;52.03;96607.91;10374836;28;20490;-31
2023/06/16 16:54:56;;;;;;;4.78;3.05;;;;;;;20.43;52.60;96599.50;10364102;28;20401;-31
2023/06/16 16:59:56;;;;;;;5.20;2.97;;;;;;;20.42;52.65;96611.38;10377032;28;20021;-31
2023/06/16 17:04:57;;;;;;;3.00;2.70;;;;;;;20.41;52.68;96613.06;10351803;28;20038;-31
2023/06/16 17:09:57;;;;;;;3.07;2.77;;;;;;;20.38;52.52;96610.56;10368403;28;20030;-31
2023/06/16 17:14:57;;;;;;;3.13;2.83;;;;;;;20.39;52.77;96604.63;10358404;28;20841;-30
2023/06/16 17:19:58;;;;;;;3.23;2.80;;;;;;;20.39;52.63;96613.06;10366996;28;20497;-30
2023/06/16 17:24:58;;;;;;;3.60;3.30;;;;;;;20.50;52.92;96616.38;10359568;28;20042;-30
2023/06/16 17:29:58;;;;;;;4.73;3.17;;;;;;;20.66;52.54;96612.84;10373599;28;20042;-31
2023/06/16 17:34:59;;;;;;;3.93;2.63;;;;;;;20.70;52.20;96613.63;10373063;28;20033;-30
2023/06/16 17:40:00;;;;;;;3.10;2.80;;;;;;;20.57;52.22;96617.97;10347547;28;20038;-29
2023/06/16 17:45:02;;;;;;;2.78;2.50;;;;;;;20.47;52.53;96616.41;10364174;28;20034;-30
2023/06/16 17:50:03;;;;;;;2.63;2.42;;;;;;;20.44;52.72;96624.06;10370963;28;20548;-31
2023/06/16 17:55:04;;;;;;;3.67;3.03;;;;;;;20.42;52.64;96623.25;10363021;28;20034;-30
2023/06/16 18:00:06;;;;;;;2.90;2.50;;;;;;;20.42;52.80;96621.56;10355998;28;20030;-29
2023/06/16 18:05:12;;;;;;;3.25;2.65;;;;;;;20.40;52.96;96621.56;10350656;28;20128;-30
2023/06/16 18:10:12;;;;;;;2.93;2.63;;;;;;;20.38;52.84;96616.47;10354370;28;20038;-30
2023/06/16 18:15:14;;;;;;;3.90;2.83;;;;;;;20.38;52.75;96613.13;10370803;28;20053;-31
2023/06/16 18:20:15;;;;;;;4.38;3.20;;;;;;;20.57;52.89;96612.06;10353753;28;20289;-30
2023/06/16 18:25:15;;;;;;;3.55;2.97;;;;;;;20.70;52.84;96604.28;10354351;28;20045;-30
2023/06/16 18:30:16;;;;;;;2.93;2.37;;;;;;;20.67;52.49;96606.88;10339211;28;20045;-30
2023/06/16 18:35:16;;;;;;;3.30;2.92;;;;;;;20.56;52.38;96616.31;10358807;28;20092;-31
2023/06/16 18:40:17;;;;;;;3.87;2.60;;;;;;;20.49;52.74;96617.25;10369496;28;20042;-31
2023/06/16 18:45:18;;;;;;;2.85;2.53;;;;;;;20.44;52.72;96611.34;10345800;28;20044;-30
2023/06/16 18:50:18;;;;;;;3.00;2.42;;;;;;;20.42;52.88;96615.63;10334132;28;20034;-30
2023/06/16 18:55:20;;;;;;;3.55;2.47;;;;;;;20.40;52.97;96613.94;10372175;28;20057;-29
2023/06/16 19:00:22;;;;;;;3.95;2.90;;;;;;;20.39;52.87;96612.25;10360182;28;20034;-30
2023/06/16 19:05:22;;;;;;;2.40;2.20;;;;;;;20.38;52.94;96624.13;10345268;28;20044;-30
2023/06/16 19:10:22;;;;;;;2.90;2.60;;;;;;;20.38;52.65;96625.81;10362003;28;20485;-31
2023/06/16 19:15:23;;;;;;;2.67;2.47;;;;;;;20.60;52.79;96625.59;10367577;28;20068;-30
2023/06/16 19:20:23;;;;;;;2.33;2.13;;;;;;;20.69;52.43;96627.19;10331511;28;20032;-29
2023/06/16 19:25:26;;;;;;;2.67;2.27;;;;;;;20.55;52.39;96624.78;10364517;28;20121;-30
2023/06/16 19:30:26;;;;;;;2.60;2.30;;;;;;;20.45;52.46;96638.47;10336088;28;20573;-31
2023/06/16 19:35:26;;;;;;;2.17;1.97;;;;;;;20.42;52.48;96642.72;10344123;28;20030;-30
2023/06/16 19:40:27;;;;;;;2.73;2.40;;;;;;;20.39;52.68;96648.69;10352783;28;20028;-31
2023/06/16 19:45:28;;;;;;;2.17;1.97;;;;;;;20.38;52.64;96660.56;10363371;28;20025;-30
2023/06/16 19:50:28;;;;;;;2.53;2.17;;;;;;;20.37;52.66;96669.06;10389268;28;20482;-28
2023/06/16 19:55:28;;;;;;;2.27;2.00;;;;;;;20.34;52.62;96679.28;10355634;28;20041;-29
2023/06/16 20:00:29;;;;;;;2.13;1.90;;;;;;;20.33;52.58;96677.59;10334521;28;20025;-30
2023/06/16 20:05:29;;;;;;;2.20;2.00;;;;;;;20.43;52.76;96693.59;10352514;28;20088;-30
2023/06/16 20:10:30;;;;;;;2.27;2.07;;;;;;;20.61;52.71;96690.88;10355081;28;20311;-29
2023/06/16 20:15:30;;;;;;;2.25;2.05;;;;;;;20.63;52.21;96695.97;10371747;28;20038;-30
2023/06/16 20:20:30;;;;;;;2.33;2.03;;;;;;;20.48;52.36;96699.47;10365875;28;20034;-31
2023/06/16 20:25:31;;;;;;;2.10;1.90;;;;;;;20.41;52.39;96704.63;10352349;28;20033;-30
2023/06/16 20:30:31;;;;;;;1.93;1.73;;;;;;;20.37;52.45;96699.56;10368401;28;20035;-30
2023/06/16 20:35:31;;;;;;;1.90;1.80;;;;;;;20.34;52.54;96699.59;10371089;28;20172;-30
2023/06/16 20:40:33;;;;;;;3.57;2.33;;;;;;;20.34;52.44;96699.59;10365696;28;20656;-29
2023/06/16 20:45:34;;;;;;;2.00;1.90;;;;;;;20.30;52.57;96706.41;10386752;28;20041;-30
2023/06/16 20:50:36;;;;;;;2.47;2.00;;;;;;;20.30;52.44;96708.09;10365876;28;20545;-30
2023/06/16 20:55:37;;;;;;;2.53;2.33;;;;;;;20.29;52.19;96714.03;10336277;28;20034;-31
2023/06/16 21:00:37;;;;;;;2.30;2.10;;;;;;;20.47;52.42;96713.03;10350203;28;20482;-29
2023/06/16 21:05:41;;;;;;;2.27;2.07;;;;;;;20.62;52.31;96717.19;10353672;28;20089;-30
2023/06/16 21:10:42;;;;;;;2.05;1.80;;;;;;;20.53;52.13;96713.00;10390416;28;20030;-31
2023/06/16 21:15:43;;;;;;;2.30;2.10;;;;;;;20.41;51.64;96712.25;10370017;28;20044;-29
2023/06/16 21:20:43;;;;;;;2.35;2.15;;;;;;;20.34;52.17;96709.78;10349134;28;20038;-30
2023/06/16 21:25:43;;;;;;;2.20;1.93;;;;;;;20.31;52.28;96704.69;10362211;28;20562;-31
2023/06/16 21:30:44;;;;;;;2.50;2.07;;;;;;;20.30;52.02;96711.50;10380870;28;20038;-30
2023/06/16 21:35:44;;;;;;;2.20;2.00;;;;;;;20.28;52.36;96708.09;10363787;28;20041;-30
2023/06/16 21:40:47;;;;;;;2.30;2.10;;;;;;;20.29;52.37;96703.88;10376515;28;20037;-30
2023/06/16 21:45:47;;;;;;;2.35;2.00;;;;;;;20.26;51.98;96702.19;10369177;28;20033;-30
2023/06/16 21:50:48;;;;;;;2.70;2.20;;;;;;;20.30;52.28;96703.00;10370500;28;20516;-30
2023/06/16 21:55:49;;;;;;;2.63;2.20;;;;;;;20.53;51.94;96713.00;10377244;28;20057;-29
2023/06/16 22:00:49;;;;;;;3.15;2.40;;;;;;;20.61;52.07;96707.84;10355977;28;20109;-30
2023/06/16 22:05:49;;;;;;;2.40;1.97;;;;;;;20.47;51.87;96707.94;10339657;28;20480;-30
2023/06/16 22:10:50;;;;;;;2.00;1.83;;;;;;;20.36;51.90;96706.34;10371503;28;20080;-30
2023/06/16 22:15:50;;;;;;;2.63;1.77;;;;;;;20.31;52.12;96700.47;10343991;28;20026;-29
2023/06/16 22:20:51;;;;;;;2.30;2.10;;;;;;;20.29;52.04;96701.31;10364237;28;20029;-29
2023/06/16 22:25:52;;;;;;;3.22;2.28;;;;;;;20.27;52.23;96703.03;10357453;28;20173;-30
2023/06/16 22:30:52;;;;;;;2.25;1.95;;;;;;;20.27;52.12;96700.50;10365839;28;20557;-30
2023/06/16 22:35:52;;;;;;;2.40;2.20;;;;;;;20.25;52.02;96692.06;10367349;28;20402;-29
2023/06/16 22:40:53;;;;;;;2.43;2.10;;;;;;;20.24;51.92;96686.09;10375508;28;20025;-30
2023/06/16 22:45:53;;;;;;;4.20;2.40;;;;;;;20.35;52.41;96697.03;10354793;28;20293;-29
2023/06/16 22:50:57;;;;;;;2.60;2.17;;;;;;;20.54;51.77;96690.97;10351659;28;20042;-32
2023/06/16 22:55:57;;;;;;;4.07;2.40;;;;;;;20.53;51.75;96685.03;10353426;28;20036;-31
2023/06/16 23:00:58;;;;;;;2.83;2.23;;;;;;;20.38;51.71;96686.00;10339350;28;20042;-31
2023/06/16 23:05:58;;;;;;;2.50;2.20;;;;;;;20.31;51.86;96686.91;10389746;28;20041;-30
2023/06/16 23:10:59;;;;;;;2.70;2.20;;;;;;;20.26;51.84;96683.56;10349043;28;20042;-29
2023/06/16 23:16:00;;;;;;;3.20;2.70;;;;;;;20.22;51.81;96682.75;10342517;28;20042;-30
2023/06/16 23:21:01;;;;;;;2.55;2.35;;;;;;;20.24;51.85;96677.63;10345401;28;20093;-30